KCKM/CKM METAR and TAF weather

Enter ICAO airport designator
Station Type Date Time Source
KCKM METAR 2022/01/19 20:15 UTC NOAA

KCKM 192015Z AUTO 19006KT 5SM BR OVC028 16/16 A2992 RMK A01


Station Type Date Time Source
KCKM Decoded METAR 2022/01/19 20:15 UTC NOAA

Station name not available
Jan 19, 2022 - 03:15 PM EST / 2022.01.19 2015 UTC
Wind: from the S (190 degrees) at 7 MPH (6 KT):0
Visibility: 5 mile(s):0
Sky conditions: overcast
Weather: mist
Temperature: 60 F (16 C)
Dew Point: 60 F (16 C)
Relative Humidity: 100%
Pressure (altimeter): 29.92 in. Hg (1013 hPa)
ob: KCKM 192015Z AUTO 19006KT 5SM BR OVC028 16/16 A2992 RMK A01
cycle: 20

Station Type Date Time Source
KCKM TAF UTC NOAA

Error!

Example: see airport list